Race Rocks, British Columbia

7:21 AM PDT on September 01, 2015 (GMT -0700)
Metchosin | | Change Station
CLOSE
Current Station
Personal Weather Station
Location: Victoria, BC
Elevation: 25 ft
Nearby Weather Stations

Elev 25 ft 48.37 °N, 123.53 °W | Updated 3 minutes ago

Overcast
Overcast
56.1 °F
Feels Like 56.1 °F
N
3.8
Wind Variable Wind from WNW

Today
High -- | Low -- °F
--% Chance of Precip.
Yesterday
High -- | Low -- °F
Precip. -- in
6:31 AM 7:55 PM
Waning Gibbous, 88% visible
Pressure 29.83 in
Visibility 15.0 miles
Clouds Few 800 ft
Scattered Clouds 6500 ft
Mostly Cloudy 9000 ft
Overcast 24000 ft
Dew Point 56 °F
Humidity 98%
Rainfall 0.55 in
Snow Depth Not available.
UV 0 out of 12
Pollen Not available.
Air Quality Not available.
Flu Activity Not available.
METAR CYWH 011400Z 00000KT 15SM FEW008 SCT065 BKN090 OVC240 13/12 A2982 RMK SF1SC3AC2CI2 SLP099
Pressure 29.83 in
Visibility 15.0 miles
Clouds Few 800 ft
Scattered Clouds 6500 ft
Mostly Cloudy 9000 ft
Overcast 24000 ft
Dew Point 56 °F
Humidity 98%
Rainfall 0.55 in
Snow Depth Not available.
UV 0 out of 12
Pollen Not available.
Air Quality Not available.
Flu Activity Not available.
METAR CYWH 011400Z 00000KT 15SM FEW008 SCT065 BKN090 OVC240 13/12 A2982 RMK SF1SC3AC2CI2 SLP099

10-Day Weather Forecast

×

Almanac

Astronomy

Sep. 01, 2015 Rise Set
Actual Time
Civil Twilight
Nautical Twilight
Astronomical Twilight
Moon
Length of Visible Light
Length of Day
Tomorrow will be .
, % of the Moon is Illuminated

Today's Extremes

Country Highs Country Lows

Community

WunderPhotos

Upload Photos

1,851,512 photos uploaded!

WunderBlogs® & News

Nearby

Air Quality

  Air Quality AQ Index Pollutant
Not available.

Snow Depth

Station Depth Elevation

Earthquake Activity

City Distance Mag. Time & Date
Minimum magnitude displayed is 2.5.

Coastal Water Temperatures

Place Temperature

Stations

Nearby Weather Stations

Station Location Temp. Windchill Dew Point Humidity Wind Precip. Elev Updated Type